Herculaneum, Missouri
Current Conditions -  °F | °C
As of 9:53 PM on Thursday 18 Dec 2014 (Local Time) from KCPS Reporting Station
Overcast Overcast  
Wind Chill: 30°   Ceiling: 2700
Heat Index: 34°   Visibility: 10mi
Dew Point: 27°   Wind: 5mph
Humidity: 75%   Direction: 70°ENE
Pressure: 30.29"   Gusts: NA
Location:  38.27°N, 90.38°W
Report Text: KCPS 190353Z 07004KT 10SM OVC027 01/M03 A3029 RMK AO2 SLP261 T00111028
Loading
Personal Weather Stations






























Interactive Weather Map New forecast layout! Learn more

10-Day Weather Forecast

Advertisements
Track Severe Weather on mobile